createdAt,value
2019-05-25T00:00:22.172Z,17.45
2019-05-25T00:05:27.750Z,17.19
2019-05-25T00:10:32.393Z,17.82
2019-05-25T00:15:38.816Z,17.77
2019-05-25T00:20:45.247Z,17.49
2019-05-25T00:25:51.218Z,17.57
2019-05-25T00:30:57.136Z,17.31
2019-05-25T00:36:02.044Z,17.46
2019-05-25T00:41:07.409Z,17.36
2019-05-25T00:46:12.448Z,17.45
2019-05-25T00:51:18.051Z,17.75
2019-05-25T00:56:22.947Z,17.69
2019-05-25T01:01:27.693Z,17.99
2019-05-25T01:06:32.768Z,17.96
2019-05-25T01:11:37.491Z,17.53
2019-05-25T01:16:42.239Z,17.74
2019-05-25T01:21:47.079Z,17.45
2019-05-25T01:26:51.822Z,17.51
2019-05-25T01:31:56.461Z,17.25
2019-05-25T01:37:01.209Z,16.96
2019-05-25T01:42:05.845Z,17.15
2019-05-25T01:47:10.589Z,17.16
2019-05-25T01:52:15.171Z,17.54
2019-05-25T01:57:19.770Z,17.32
2019-05-25T02:02:24.418Z,17.63
2019-05-25T02:07:29.059Z,16.90
2019-05-25T02:12:33.692Z,16.96
2019-05-25T02:17:38.312Z,17.15
2019-05-25T02:22:42.976Z,17.69
2019-05-25T02:27:47.719Z,17.49
2019-05-25T02:32:52.466Z,17.18
2019-05-25T02:37:59.338Z,17.42
2019-05-25T02:43:04.094Z,17.58
2019-05-25T02:48:08.843Z,17.46
2019-05-25T02:53:13.689Z,17.71
2019-05-25T02:58:19.563Z,17.20
2019-05-25T03:03:24.201Z,17.50
2019-05-25T03:08:29.826Z,16.93
2019-05-25T03:13:34.612Z,16.99
2019-05-25T03:18:39.351Z,16.97
2019-05-25T03:23:43.991Z,16.50
2019-05-25T03:28:48.736Z,17.33
2019-05-25T03:33:53.481Z,17.27
2019-05-25T03:38:58.226Z,17.70
2019-05-25T03:44:02.866Z,17.57
2019-05-25T03:49:07.817Z,17.59
2019-05-25T03:54:12.556Z,17.87
2019-05-25T03:59:18.324Z,17.74
2019-05-25T04:04:24.298Z,17.95
2019-05-25T04:09:29.046Z,17.65
2019-05-25T04:14:33.684Z,18.24
2019-05-25T04:19:38.426Z,18.02
2019-05-25T04:24:43.170Z,18.14
2019-05-25T04:29:49.462Z,18.08
2019-05-25T04:34:54.025Z,17.87
2019-05-25T04:39:58.731Z,17.04
2019-05-25T04:45:03.806Z,17.72
2019-05-25T04:50:08.595Z,17.48
2019-05-25T04:55:13.372Z,18.27
2019-05-25T05:00:20.779Z,18.59
2019-05-25T05:05:25.519Z,18.19
2019-05-25T05:10:30.154Z,19.02
2019-05-25T05:15:34.903Z,18.86
2019-05-25T05:20:39.652Z,19.49
2019-05-25T05:25:44.395Z,19.76
2019-05-25T05:30:49.147Z,20.13
2019-05-25T05:35:53.697Z,19.91
2019-05-25T05:40:58.732Z,20.06
2019-05-25T05:46:03.476Z,20.48
2019-05-25T05:51:09.505Z,20.35
2019-05-25T05:56:15.667Z,20.04
2019-05-25T06:01:21.598Z,21.46
2019-05-25T06:06:28.701Z,21.99
2019-05-25T06:11:34.993Z,22.24
2019-05-25T06:16:40.445Z,22.66
2019-05-25T06:21:45.116Z,22.60
2019-05-25T06:26:51.149Z,22.97
2019-05-25T06:31:56.005Z,23.31
2019-05-25T06:37:00.848Z,23.33
2019-05-25T06:42:05.593Z,23.92
2019-05-25T06:47:10.325Z,23.28
2019-05-25T06:52:15.984Z,23.79
2019-05-25T06:57:21.031Z,23.69
2019-05-25T07:02:27.506Z,23.78
2019-05-25T07:07:38.003Z,24.21
2019-05-25T07:12:44.669Z,23.49
2019-05-25T07:17:52.890Z,23.53
2019-05-25T07:22:58.078Z,22.46
2019-05-25T07:28:02.923Z,23.25
2019-05-25T07:33:07.770Z,23.72
2019-05-25T07:38:12.720Z,24.64
2019-05-25T07:43:18.450Z,24.48
2019-05-25T07:48:24.429Z,24.19
2019-05-25T07:53:29.406Z,25.13
2019-05-25T07:58:34.682Z,24.82
2019-05-25T08:03:40.782Z,25.02
2019-05-25T08:08:45.554Z,25.29
2019-05-25T08:13:51.254Z,25.27
2019-05-25T08:18:57.778Z,24.35
2019-05-25T08:24:02.592Z,24.86
2019-05-25T08:29:07.235Z,25.71
2019-05-25T08:34:12.467Z,25.47
2019-05-25T08:39:17.294Z,25.79
2019-05-25T08:44:22.543Z,25.71
2019-05-25T08:49:32.546Z,27.07
2019-05-25T08:54:37.695Z,26.56
2019-05-25T08:59:42.562Z,26.67
2019-05-25T09:04:50.411Z,24.82
2019-05-25T09:09:55.419Z,26.49
2019-05-25T09:15:00.162Z,25.75
2019-05-25T09:20:08.200Z,26.76
2019-05-25T09:25:14.579Z,26.20
2019-05-25T09:30:19.206Z,26.90
2019-05-25T09:35:25.688Z,26.76
2019-05-25T09:40:30.395Z,27.75
2019-05-25T09:45:35.280Z,27.37
2019-05-25T09:50:40.126Z,26.80
2019-05-25T09:55:48.503Z,26.51
2019-05-25T10:00:53.712Z,26.84
2019-05-25T10:05:58.558Z,25.67
2019-05-25T10:11:03.304Z,26.30
2019-05-25T10:16:08.165Z,26.11
2019-05-25T10:21:14.999Z,26.43
2019-05-25T10:26:22.882Z,26.22
2019-05-25T10:31:25.862Z,26.19
2019-05-25T10:36:30.607Z,25.33
2019-05-25T10:41:35.454Z,25.19
2019-05-25T10:46:41.306Z,22.75
2019-05-25T10:51:47.096Z,23.33
2019-05-25T10:56:51.842Z,22.88
2019-05-25T11:01:56.592Z,23.00
2019-05-25T11:07:01.326Z,24.02
2019-05-25T11:12:06.075Z,23.73
2019-05-25T11:17:10.948Z,23.17
2019-05-25T11:22:15.781Z,23.53
2019-05-25T11:27:20.503Z,22.31
2019-05-25T11:32:25.253Z,22.32
2019-05-25T11:37:30.503Z,21.01
2019-05-25T11:42:35.454Z,21.45
2019-05-25T11:47:40.199Z,20.81
2019-05-25T11:52:45.544Z,20.85
2019-05-25T11:57:50.503Z,21.73
2019-05-25T12:02:55.351Z,22.34
2019-05-25T12:08:00.421Z,23.33
2019-05-25T12:13:05.250Z,22.42
2019-05-25T12:18:09.994Z,23.17
2019-05-25T12:23:14.775Z,23.62
2019-05-25T12:28:19.594Z,24.13
2019-05-25T12:33:24.329Z,23.39
2019-05-25T12:38:29.344Z,23.68
2019-05-25T12:43:34.226Z,23.89
2019-05-25T12:48:40.198Z,24.32
2019-05-25T12:53:45.253Z,24.27
2019-05-25T12:58:50.469Z,25.14
2019-05-25T13:03:56.888Z,25.73
2019-05-25T13:09:01.662Z,24.99
2019-05-25T13:14:14.745Z,25.38
2019-05-25T13:19:13.891Z,25.29
2019-05-25T13:24:18.532Z,25.35
2019-05-25T13:29:23.472Z,26.06
2019-05-25T13:34:28.333Z,25.96
2019-05-25T13:39:34.910Z,25.70
2019-05-25T13:44:40.560Z,25.73
2019-05-25T13:49:46.956Z,24.87
2019-05-25T13:54:52.985Z,26.03
2019-05-25T13:59:59.649Z,26.55
2019-05-25T14:05:05.670Z,25.79
2019-05-25T14:10:10.667Z,25.30
2019-05-25T14:15:15.651Z,26.14
2019-05-25T14:20:20.845Z,25.65
2019-05-25T14:25:25.589Z,26.06
2019-05-25T14:30:33.614Z,25.47
2019-05-25T14:35:38.461Z,25.75
2019-05-25T14:40:43.305Z,26.06
2019-05-25T14:45:48.154Z,25.82
2019-05-25T14:50:52.898Z,25.30
2019-05-25T14:55:57.540Z,25.76
2019-05-25T15:01:02.485Z,26.14
2019-05-25T15:06:07.330Z,26.34
2019-05-25T15:11:15.290Z,26.25
2019-05-25T15:16:21.635Z,26.36
2019-05-25T15:21:26.722Z,25.98
2019-05-25T15:26:31.641Z,26.27
2019-05-25T15:31:36.279Z,26.38
2019-05-25T15:36:41.230Z,26.38
2019-05-25T15:41:45.791Z,26.12
2019-05-25T15:46:50.521Z,25.57
2019-05-25T15:51:55.179Z,26.02
2019-05-25T15:57:00.310Z,26.19
2019-05-25T16:02:05.986Z,26.12
2019-05-25T16:07:10.709Z,26.00
2019-05-25T16:12:15.868Z,26.17
2019-05-25T16:17:21.639Z,26.16
2019-05-25T16:22:28.206Z,26.09
2019-05-25T16:27:32.964Z,26.05
2019-05-25T16:33:09.766Z,26.00
2019-05-25T16:37:44.139Z,25.78
2019-05-25T16:42:48.953Z,25.73
2019-05-25T16:47:54.222Z,25.80
2019-05-25T16:52:58.941Z,24.92
2019-05-25T16:58:03.510Z,25.13
2019-05-25T17:03:08.223Z,25.29
2019-05-25T17:08:13.017Z,25.20
2019-05-25T17:13:17.712Z,25.06
2019-05-25T17:18:22.354Z,24.36
2019-05-25T17:23:27.099Z,24.54
2019-05-25T17:28:31.941Z,24.04
2019-05-25T17:33:45.893Z,23.74
2019-05-25T17:38:43.176Z,23.80
2019-05-25T17:43:47.810Z,23.82
2019-05-25T17:48:52.555Z,23.49
2019-05-25T17:53:58.839Z,23.25
2019-05-25T17:59:03.597Z,22.41
2019-05-25T18:04:10.686Z,22.50
2019-05-25T18:09:16.449Z,21.63
2019-05-25T18:14:21.121Z,21.61
2019-05-25T18:19:26.275Z,21.37
2019-05-25T18:24:31.204Z,20.30
2019-05-25T18:29:37.211Z,20.28
2019-05-25T18:34:41.809Z,20.60
2019-05-25T18:39:48.201Z,20.22
2019-05-25T18:44:54.171Z,19.88
2019-05-25T18:49:59.010Z,20.08
2019-05-25T18:55:06.059Z,19.87
2019-05-25T19:00:11.129Z,20.07
2019-05-25T19:05:16.304Z,19.41
2019-05-25T19:10:22.199Z,19.66
2019-05-25T19:15:27.036Z,19.80
2019-05-25T19:20:34.051Z,19.79
2019-05-25T19:25:39.635Z,19.83
2019-05-25T19:30:45.646Z,20.14
2019-05-25T19:35:54.043Z,20.10
2019-05-25T19:40:58.198Z,20.04
2019-05-25T19:46:03.069Z,18.85
2019-05-25T19:51:10.622Z,18.96
2019-05-25T19:56:17.912Z,18.53
2019-05-25T20:01:22.612Z,18.64
2019-05-25T20:06:27.817Z,18.72
2019-05-25T20:11:32.830Z,18.04
2019-05-25T20:16:37.688Z,19.04
2019-05-25T20:21:42.305Z,17.98
2019-05-25T20:26:46.887Z,17.88
2019-05-25T20:31:53.241Z,18.20
2019-05-25T20:36:58.936Z,16.91
2019-05-25T20:42:04.788Z,17.56
2019-05-25T20:47:11.163Z,18.01
2019-05-25T20:52:15.936Z,17.93
2019-05-25T20:57:20.759Z,18.14
2019-05-25T21:02:25.589Z,17.87
2019-05-25T21:07:30.329Z,18.01
2019-05-25T21:12:35.720Z,18.06
2019-05-25T21:17:40.759Z,18.06
2019-05-25T21:22:46.689Z,17.48
2019-05-25T21:27:54.058Z,17.52
2019-05-25T21:33:00.085Z,16.35
2019-05-25T21:38:05.630Z,17.03
2019-05-25T21:43:10.792Z,17.65
2019-05-25T21:48:16.193Z,16.82
2019-05-25T21:53:21.114Z,16.53
2019-05-25T21:58:25.967Z,16.72
2019-05-25T22:03:30.852Z,17.12
2019-05-25T22:08:35.552Z,16.69
2019-05-25T22:13:41.291Z,16.82
2019-05-25T22:18:46.055Z,17.10
2019-05-25T22:23:50.803Z,16.82
2019-05-25T22:28:55.870Z,17.12
2019-05-25T22:34:00.833Z,15.96
2019-05-25T22:39:08.023Z,16.23
2019-05-25T22:44:12.578Z,16.43
2019-05-25T22:49:17.282Z,15.97
2019-05-25T22:54:21.843Z,15.68
2019-05-25T22:59:26.568Z,16.10
2019-05-25T23:04:31.308Z,16.32
2019-05-25T23:09:36.052Z,16.22
2019-05-25T23:14:40.792Z,15.95
2019-05-25T23:19:45.537Z,14.75
2019-05-25T23:24:50.284Z,15.39
2019-05-25T23:29:56.039Z,15.92
2019-05-25T23:35:00.792Z,15.48
2019-05-25T23:40:08.442Z,15.90
2019-05-25T23:45:14.801Z,15.80
2019-05-25T23:50:19.529Z,15.82
2019-05-25T23:55:24.269Z,15.76
